createdAt,value
2018-04-25T00:00:53.558Z,1002.04
2018-04-25T00:01:53.554Z,1002.03
2018-04-25T00:02:53.513Z,1001.98
2018-04-25T00:03:53.496Z,1001.99
2018-04-25T00:04:53.503Z,1001.98
2018-04-25T00:05:53.477Z,1001.99
2018-04-25T00:06:53.439Z,1001.86
2018-04-25T00:07:53.423Z,1001.88
2018-04-25T00:08:53.409Z,1001.82
2018-04-25T00:09:53.392Z,1001.82
2018-04-25T00:10:53.368Z,1001.84
2018-04-25T00:11:53.349Z,1001.82
2018-04-25T00:12:53.332Z,1001.74
2018-04-25T00:13:53.319Z,1001.72
2018-04-25T00:14:53.299Z,1001.70
2018-04-25T00:15:53.363Z,1001.69
2018-04-25T00:16:53.296Z,1001.63
2018-04-25T00:17:53.258Z,1001.68
2018-04-25T00:18:53.222Z,1001.63
2018-04-25T00:19:53.204Z,1001.62
2018-04-25T00:20:53.190Z,1001.58
2018-04-25T00:21:53.172Z,1001.57
2018-04-25T00:22:53.155Z,1001.57
2018-04-25T00:23:53.133Z,1001.49
2018-04-25T00:24:53.117Z,1001.43
2018-04-25T00:25:53.109Z,1001.38
2018-04-25T00:26:53.100Z,1001.35
2018-04-25T00:27:53.057Z,1001.36
2018-04-25T00:28:53.042Z,1001.34
2018-04-25T00:29:53.026Z,1001.30
2018-04-25T00:30:53.005Z,1001.34
2018-04-25T00:31:52.986Z,1001.33
2018-04-25T00:32:52.967Z,1001.34
2018-04-25T00:33:52.955Z,1001.35
2018-04-25T00:34:52.931Z,1001.33
2018-04-25T00:35:52.912Z,1001.33
2018-04-25T00:36:52.895Z,1001.32
2018-04-25T00:37:52.882Z,1001.29
2018-04-25T00:38:52.860Z,1001.30
2018-04-25T00:39:52.841Z,1001.29
2018-04-25T00:40:52.823Z,1001.28
2018-04-25T00:41:52.812Z,1001.30
2018-04-25T00:42:52.787Z,1001.28
2018-04-25T00:43:52.768Z,1001.26
2018-04-25T00:44:52.750Z,1001.28
2018-04-25T00:45:52.733Z,1001.22
2018-04-25T00:46:52.711Z,1001.17
2018-04-25T00:47:52.696Z,1001.17
2018-04-25T00:48:52.677Z,1001.13
2018-04-25T00:49:52.661Z,1001.11
2018-04-25T00:50:52.641Z,1001.09
2018-04-25T00:51:52.621Z,1001.10
2018-04-25T00:52:52.606Z,1001.13
2018-04-25T00:53:52.598Z,1001.13
2018-04-25T00:54:52.569Z,1001.10
2018-04-25T00:55:52.549Z,1001.06
2018-04-25T00:56:52.530Z,1001.00
2018-04-25T00:57:52.517Z,1000.95
2018-04-25T00:58:52.494Z,1000.95
2018-04-25T00:59:52.475Z,1000.97
2018-04-25T01:00:52.458Z,1000.96
2018-04-25T01:01:52.470Z,1000.95
2018-04-25T01:02:52.425Z,1000.87
2018-04-25T01:03:52.402Z,1000.86
2018-04-25T01:04:52.384Z,1000.80
2018-04-25T01:05:52.372Z,1000.72
2018-04-25T01:06:52.351Z,1000.69
2018-04-25T01:07:52.330Z,1000.68
2018-04-25T01:08:52.311Z,1000.70
2018-04-25T01:09:52.298Z,1000.69
2018-04-25T01:10:52.278Z,1000.73
2018-04-25T01:11:52.380Z,1000.70
2018-04-25T01:12:52.240Z,1000.67
2018-04-25T01:13:52.225Z,1000.70
2018-04-25T01:14:52.203Z,1000.69
2018-04-25T01:15:52.186Z,1000.65
2018-04-25T01:16:52.177Z,1000.62
2018-04-25T01:17:52.151Z,1000.60
2018-04-25T01:18:52.131Z,1000.62
2018-04-25T01:19:52.111Z,1000.62
2018-04-25T01:20:52.094Z,1000.64
2018-04-25T01:21:52.079Z,1000.65
2018-04-25T01:22:52.062Z,1000.64
2018-04-25T01:23:52.039Z,1000.65
2018-04-25T01:24:52.021Z,1000.64
2018-04-25T01:25:52.005Z,1000.65
2018-04-25T01:26:51.983Z,1000.71
2018-04-25T01:27:51.992Z,1000.70
2018-04-25T01:28:51.969Z,1000.68
2018-04-25T01:29:51.930Z,1000.68
2018-04-25T01:30:51.916Z,1000.69
2018-04-25T01:31:51.906Z,1000.62
2018-04-25T01:32:51.878Z,1000.64
2018-04-25T01:33:51.856Z,1000.61
2018-04-25T01:34:51.849Z,1000.58
2018-04-25T01:35:51.823Z,1000.54
2018-04-25T01:36:51.803Z,1000.55
2018-04-25T01:37:51.789Z,1000.52
2018-04-25T01:38:51.774Z,1000.47
2018-04-25T01:39:51.751Z,1000.52
2018-04-25T01:40:51.729Z,1000.49
2018-04-25T01:41:51.715Z,1000.47
2018-04-25T01:42:51.698Z,1000.48
2018-04-25T01:43:51.677Z,1000.46
2018-04-25T01:44:51.659Z,1000.45
2018-04-25T01:45:51.643Z,1000.42
2018-04-25T01:46:51.622Z,1000.46
2018-04-25T01:47:51.605Z,1000.44
2018-04-25T01:48:51.584Z,1000.44
2018-04-25T01:49:51.570Z,1000.45
2018-04-25T01:50:51.552Z,1000.45
2018-04-25T01:51:51.533Z,1000.47
2018-04-25T01:52:51.515Z,1000.46
2018-04-25T01:53:51.494Z,1000.45
2018-04-25T01:54:51.486Z,1000.38
2018-04-25T01:55:51.457Z,1000.34
2018-04-25T01:56:51.441Z,1000.32
2018-04-25T01:57:51.423Z,1000.27
2018-04-25T01:58:51.404Z,1000.29
2018-04-25T01:59:51.385Z,1000.29
2018-04-25T02:00:51.367Z,1000.26
2018-04-25T02:01:51.350Z,1000.27
2018-04-25T02:02:51.339Z,1000.27
2018-04-25T02:03:51.315Z,1000.28
2018-04-25T02:04:51.295Z,1000.26
2018-04-25T02:05:51.278Z,1000.25
2018-04-25T02:06:51.260Z,1000.21
2018-04-25T02:07:51.240Z,1000.23
2018-04-25T02:08:51.226Z,1000.21
2018-04-25T02:09:51.203Z,1000.18
2018-04-25T02:10:51.189Z,1000.19
2018-04-25T02:11:51.198Z,1000.21
2018-04-25T02:12:51.150Z,1000.27
2018-04-25T02:13:51.133Z,1000.24
2018-04-25T02:14:51.116Z,1000.19
2018-04-25T02:15:51.095Z,1000.14
2018-04-25T02:16:51.078Z,1000.15
2018-04-25T02:17:51.068Z,1000.14
2018-04-25T02:18:51.044Z,1000.16
2018-04-25T02:19:51.022Z,1000.15
2018-04-25T02:20:51.005Z,1000.12
2018-04-25T02:21:50.987Z,1000.14
2018-04-25T02:22:50.973Z,1000.15
2018-04-25T02:23:50.949Z,1000.13
2018-04-25T02:24:50.933Z,1000.09
2018-04-25T02:25:50.913Z,1000.10
2018-04-25T02:26:50.894Z,1000.15
2018-04-25T02:27:50.880Z,1000.21
2018-04-25T02:28:50.859Z,1000.19
2018-04-25T02:29:50.840Z,1000.17
2018-04-25T02:30:50.907Z,1000.16
2018-04-25T02:31:50.814Z,1000.26
2018-04-25T02:32:50.799Z,1000.27
2018-04-25T02:33:50.772Z,1000.26
2018-04-25T02:34:50.755Z,1000.18
2018-04-25T02:35:50.736Z,1000.15
2018-04-25T02:36:50.720Z,1000.11
2018-04-25T02:37:50.699Z,999.98
2018-04-25T02:38:50.682Z,1000.15
2018-04-25T02:39:50.661Z,1000.07
2018-04-25T02:40:50.693Z,1000.06
2018-04-25T02:41:50.631Z,1000.08
2018-04-25T02:42:50.638Z,1000.05
2018-04-25T02:43:50.627Z,1000.00
2018-04-25T02:44:50.569Z,1000.07
2018-04-25T02:45:50.552Z,999.99
2018-04-25T02:46:50.536Z,999.99
2018-04-25T02:47:50.516Z,999.94
2018-04-25T02:48:50.501Z,999.93
2018-04-25T02:49:50.501Z,999.96
2018-04-25T02:50:50.465Z,999.99
2018-04-25T02:51:50.448Z,999.97
2018-04-25T02:52:50.427Z,999.90
2018-04-25T02:53:50.429Z,999.93
2018-04-25T02:54:50.425Z,999.85
2018-04-25T02:55:50.374Z,999.84
2018-04-25T02:56:50.352Z,999.84
2018-04-25T02:57:50.336Z,999.80
2018-04-25T02:58:50.321Z,999.93
2018-04-25T02:59:50.301Z,999.88
2018-04-25T03:00:50.282Z,999.84
2018-04-25T03:01:50.264Z,999.87
2018-04-25T03:02:50.247Z,999.82
2018-04-25T03:03:50.229Z,999.89
2018-04-25T03:04:50.206Z,999.87
2018-04-25T03:05:50.187Z,999.84
2018-04-25T03:06:50.173Z,1000.00
2018-04-25T03:07:50.156Z,999.89
2018-04-25T03:08:50.135Z,999.90
2018-04-25T03:09:50.116Z,999.89
2018-04-25T03:10:50.097Z,999.89
2018-04-25T03:11:50.082Z,999.91
2018-04-25T03:12:50.061Z,999.84
2018-04-25T03:13:50.045Z,999.85
2018-04-25T03:14:50.026Z,999.88
2018-04-25T03:15:50.012Z,999.83
2018-04-25T03:16:50.013Z,999.80
2018-04-25T03:17:49.971Z,999.81
2018-04-25T03:18:49.953Z,999.88
2018-04-25T03:19:49.940Z,999.76
2018-04-25T03:20:49.922Z,999.70
2018-04-25T03:21:49.901Z,999.64
2018-04-25T03:22:49.880Z,999.67
2018-04-25T03:23:49.870Z,999.67
2018-04-25T03:24:49.844Z,999.68
2018-04-25T03:25:49.830Z,999.72
2018-04-25T03:26:49.808Z,999.67
2018-04-25T03:27:49.797Z,999.70
2018-04-25T03:28:49.776Z,999.66
2018-04-25T03:29:49.753Z,999.65
2018-04-25T03:30:49.749Z,999.68
2018-04-25T03:31:49.721Z,999.72
2018-04-25T03:32:49.705Z,999.71
2018-04-25T03:33:49.686Z,999.75
2018-04-25T03:34:49.660Z,999.71
2018-04-25T03:35:49.643Z,999.77
2018-04-25T03:36:49.634Z,999.80
2018-04-25T03:37:49.608Z,999.72
2018-04-25T03:38:49.590Z,999.77
2018-04-25T03:39:49.576Z,999.68
2018-04-25T03:40:49.565Z,999.81
2018-04-25T03:41:49.581Z,999.74
2018-04-25T03:42:49.527Z,999.68
2018-04-25T03:43:49.527Z,999.77
2018-04-25T03:44:49.486Z,999.69
2018-04-25T03:45:49.495Z,999.75
2018-04-25T03:46:49.444Z,999.73
2018-04-25T03:47:49.424Z,999.72
2018-04-25T03:48:49.432Z,999.65
2018-04-25T03:49:49.393Z,999.68
2018-04-25T03:50:49.367Z,999.63
2018-04-25T03:51:49.355Z,999.67
2018-04-25T03:52:49.335Z,999.65
2018-04-25T03:53:49.320Z,999.63
2018-04-25T03:54:49.323Z,999.56
2018-04-25T03:55:49.282Z,999.60
2018-04-25T03:56:49.263Z,999.57
2018-04-25T03:57:49.242Z,999.60
2018-04-25T03:58:49.221Z,999.66
2018-04-25T03:59:49.206Z,999.64
2018-04-25T04:00:49.188Z,999.56
2018-04-25T04:01:49.172Z,999.63
2018-04-25T04:02:49.149Z,999.56
2018-04-25T04:03:49.132Z,999.57
2018-04-25T04:04:49.115Z,999.55
2018-04-25T04:05:49.094Z,999.53
2018-04-25T04:06:49.096Z,999.50
2018-04-25T04:07:49.070Z,999.60
2018-04-25T04:08:49.078Z,999.55
2018-04-25T04:09:49.025Z,999.59
2018-04-25T04:10:49.029Z,999.60
2018-04-25T04:11:49.011Z,999.52
2018-04-25T04:12:48.984Z,999.53
2018-04-25T04:13:48.958Z,999.59
2018-04-25T04:14:49.612Z,999.54
2018-04-25T04:15:48.911Z,999.59
2018-04-25T04:16:48.956Z,999.56
2018-04-25T04:17:48.945Z,999.52
2018-04-25T04:18:48.867Z,999.67
2018-04-25T04:19:49.521Z,999.62
2018-04-25T04:20:48.875Z,999.48
2018-04-25T04:21:48.868Z,999.58
2018-04-25T04:22:48.815Z,999.52
2018-04-25T04:23:48.797Z,999.57
2018-04-25T04:24:48.863Z,999.59
2018-04-25T04:25:48.801Z,999.56
2018-04-25T04:26:48.708Z,999.48
2018-04-25T04:27:48.738Z,999.55
2018-04-25T04:28:48.731Z,999.46
2018-04-25T04:29:48.678Z,999.55
2018-04-25T04:30:48.640Z,999.58
2018-04-25T04:31:48.619Z,999.60
2018-04-25T04:32:48.676Z,999.73
2018-04-25T04:33:48.591Z,999.62
2018-04-25T04:34:48.604Z,999.86
2018-04-25T04:35:48.549Z,999.53
2018-04-25T04:36:48.544Z,999.61
2018-04-25T04:37:48.509Z,999.82
2018-04-25T04:38:48.561Z,999.52
2018-04-25T04:39:48.492Z,999.68
2018-04-25T04:40:48.486Z,999.65
2018-04-25T04:41:48.476Z,999.53
2018-04-25T04:42:48.451Z,999.51
2018-04-25T04:43:49.230Z,999.54
2018-04-25T04:44:48.441Z,999.48
2018-04-25T04:45:48.361Z,999.55
2018-04-25T04:46:48.404Z,999.55
2018-04-25T04:47:48.324Z,999.51
2018-04-25T04:48:48.379Z,999.69
2018-04-25T04:49:48.313Z,999.57
2018-04-25T04:50:48.269Z,999.44
2018-04-25T04:51:48.252Z,999.50
2018-04-25T04:52:48.232Z,999.51
2018-04-25T04:53:48.215Z,999.46
2018-04-25T04:54:48.195Z,999.49
2018-04-25T04:55:48.175Z,999.48
2018-04-25T04:56:48.158Z,999.43
2018-04-25T04:57:48.140Z,999.42
2018-04-25T04:58:48.123Z,999.44
2018-04-25T04:59:48.120Z,999.47
2018-04-25T05:00:48.089Z,999.46
2018-04-25T05:01:48.065Z,999.60
2018-04-25T05:02:48.045Z,999.40
2018-04-25T05:03:48.029Z,999.54
2018-04-25T05:04:48.013Z,999.45
2018-04-25T05:05:47.992Z,999.45
2018-04-25T05:06:47.978Z,999.47
2018-04-25T05:07:47.953Z,999.51
2018-04-25T05:08:47.942Z,999.71
2018-04-25T05:09:47.919Z,999.51
2018-04-25T05:10:47.973Z,999.47
2018-04-25T05:11:47.880Z,999.59
2018-04-25T05:12:47.867Z,999.62
2018-04-25T05:13:47.845Z,999.59
2018-04-25T05:14:47.826Z,999.59
2018-04-25T05:15:47.809Z,999.74
2018-04-25T05:16:47.789Z,999.59
2018-04-25T05:17:47.769Z,999.53
2018-04-25T05:18:47.758Z,999.62
2018-04-25T05:19:47.734Z,999.59
2018-04-25T05:20:47.718Z,999.69
2018-04-25T05:21:47.696Z,999.69
2018-04-25T05:22:47.679Z,999.70
2018-04-25T05:23:47.659Z,999.77
2018-04-25T05:24:47.652Z,999.76
2018-04-25T05:25:47.623Z,999.71
2018-04-25T05:26:47.604Z,999.72
2018-04-25T05:27:47.611Z,999.70
2018-04-25T05:28:47.571Z,999.72
2018-04-25T05:29:47.548Z,999.79
2018-04-25T05:30:47.528Z,999.76
2018-04-25T05:31:47.542Z,999.89
2018-04-25T05:32:47.494Z,999.78
2018-04-25T05:33:47.472Z,999.93
2018-04-25T05:34:47.456Z,1000.03
2018-04-25T05:35:47.434Z,999.99
2018-04-25T05:36:47.423Z,1000.11
2018-04-25T05:37:47.400Z,1000.16
2018-04-25T05:38:47.400Z,1000.11
2018-04-25T05:39:47.363Z,1000.18
2018-04-25T05:40:47.346Z,1000.17
2018-04-25T05:41:47.326Z,1000.27
2018-04-25T05:42:47.305Z,1000.28
2018-04-25T05:43:47.294Z,1000.33
2018-04-25T05:44:47.271Z,1000.25
2018-04-25T05:45:47.251Z,1000.31
2018-04-25T05:46:47.234Z,1000.28
2018-04-25T05:47:47.213Z,1000.46
2018-04-25T05:48:47.198Z,1000.47
2018-04-25T05:49:47.176Z,1000.62
2018-04-25T05:50:47.155Z,1000.43
2018-04-25T05:51:47.210Z,1000.41
2018-04-25T05:52:47.120Z,1000.41
2018-04-25T05:53:47.129Z,1000.52
2018-04-25T05:54:47.144Z,1000.42
2018-04-25T05:55:47.063Z,1000.47
2018-04-25T05:56:47.044Z,1000.43
2018-04-25T05:57:47.083Z,1000.43
2018-04-25T05:58:47.005Z,1000.44
2018-04-25T05:59:46.988Z,1000.42
2018-04-25T06:00:46.997Z,1000.39
2018-04-25T06:01:46.947Z,1000.41
2018-04-25T06:02:46.926Z,1000.39
2018-04-25T06:03:46.908Z,1000.40
2018-04-25T06:04:46.893Z,1000.36
2018-04-25T06:05:46.868Z,1000.40
2018-04-25T06:06:46.854Z,1000.44
2018-04-25T06:07:46.833Z,1000.37
2018-04-25T06:08:46.815Z,1000.46
2018-04-25T06:09:46.795Z,1000.47
2018-04-25T06:10:46.773Z,1000.51
2018-04-25T06:11:46.760Z,1000.41
2018-04-25T06:12:46.740Z,1000.46
2018-04-25T06:13:46.718Z,1000.50
2018-04-25T06:14:46.702Z,1000.48
2018-04-25T06:15:46.678Z,1000.52
2018-04-25T06:16:46.668Z,1000.55
2018-04-25T06:17:46.639Z,1000.53
2018-04-25T06:18:46.623Z,1000.60
2018-04-25T06:19:46.608Z,1000.62
2018-04-25T06:20:46.585Z,1000.51
2018-04-25T06:21:46.566Z,1000.58
2018-04-25T06:22:46.548Z,1000.69
2018-04-25T06:23:46.525Z,1000.53
2018-04-25T06:24:46.531Z,1000.53
2018-04-25T06:25:46.488Z,1000.65
2018-04-25T06:26:46.466Z,1000.60
2018-04-25T06:27:46.458Z,1000.59
2018-04-25T06:28:46.431Z,1000.69
2018-04-25T06:29:46.408Z,1000.66
2018-04-25T06:30:46.392Z,1000.70
2018-04-25T06:31:46.376Z,1000.71
2018-04-25T06:32:46.353Z,1000.59
2018-04-25T06:33:46.332Z,1000.59
2018-04-25T06:34:46.312Z,1000.60
2018-04-25T06:35:46.302Z,1000.63
2018-04-25T06:36:46.275Z,1000.58
2018-04-25T06:37:46.259Z,1000.59
2018-04-25T06:38:46.257Z,1000.70
2018-04-25T06:39:46.221Z,1000.73
2018-04-25T06:40:46.202Z,1000.72
2018-04-25T06:41:46.181Z,1000.76
2018-04-25T06:42:46.164Z,1000.90
2018-04-25T06:43:46.172Z,1000.88
2018-04-25T06:44:46.137Z,1000.92
2018-04-25T06:45:46.101Z,1000.86
2018-04-25T06:46:46.107Z,1000.78
2018-04-25T06:47:46.069Z,1000.77
2018-04-25T06:48:46.050Z,1000.88
2018-04-25T06:49:46.025Z,1000.87
2018-04-25T06:50:46.022Z,1000.88
2018-04-25T06:51:45.986Z,1000.91
2018-04-25T06:52:45.971Z,1000.90
2018-04-25T06:53:45.975Z,1000.85
2018-04-25T06:54:45.933Z,1000.84
2018-04-25T06:55:45.912Z,1000.89
2018-04-25T06:56:45.897Z,1000.85
2018-04-25T06:57:45.872Z,1001.06
2018-04-25T06:58:45.851Z,1000.86
2018-04-25T06:59:45.846Z,1000.86
2018-04-25T07:00:45.814Z,1000.81
2018-04-25T07:01:45.796Z,1000.72
2018-04-25T07:02:45.788Z,1000.84
2018-04-25T07:03:45.759Z,1000.79
2018-04-25T07:04:45.742Z,1000.83
2018-04-25T07:05:45.719Z,1000.81
2018-04-25T07:06:45.704Z,1000.79
2018-04-25T07:07:45.680Z,1000.80
2018-04-25T07:08:45.663Z,1000.79
2018-04-25T07:09:45.643Z,1000.85
2018-04-25T07:10:45.625Z,1000.86
2018-04-25T07:11:45.605Z,1000.76
2018-04-25T07:12:45.587Z,1001.00
2018-04-25T07:13:45.567Z,1000.94
2018-04-25T07:14:45.552Z,1000.95
2018-04-25T07:15:45.535Z,1000.91
2018-04-25T07:16:45.513Z,1001.00
2018-04-25T07:17:45.494Z,1000.89
2018-04-25T07:18:45.496Z,1000.96
2018-04-25T07:19:45.455Z,1000.96
2018-04-25T07:20:45.438Z,1000.90
2018-04-25T07:21:45.418Z,1001.04
2018-04-25T07:22:45.399Z,1001.04
2018-04-25T07:23:45.442Z,1001.11
2018-04-25T07:24:45.363Z,1001.01
2018-04-25T07:25:45.342Z,1001.02
2018-04-25T07:26:45.329Z,1001.08
2018-04-25T07:27:45.305Z,1001.01
2018-04-25T07:28:45.289Z,1001.05
2018-04-25T07:29:45.270Z,1001.14
2018-04-25T07:30:45.257Z,1001.22
2018-04-25T07:31:45.233Z,1001.06
2018-04-25T07:32:45.216Z,1001.22
2018-04-25T07:33:45.195Z,1001.11
2018-04-25T07:34:45.175Z,1001.12
2018-04-25T07:35:45.157Z,1001.11
2018-04-25T07:36:45.141Z,1001.09
2018-04-25T07:37:45.121Z,1001.08
2018-04-25T07:38:45.107Z,1001.03
2018-04-25T07:39:45.086Z,1001.11
2018-04-25T07:40:45.065Z,1001.13
2018-04-25T07:41:45.134Z,1001.25
2018-04-25T07:42:45.028Z,1001.23
2018-04-25T07:43:45.008Z,1001.24
2018-04-25T07:44:44.993Z,1001.32
2018-04-25T07:45:44.975Z,1001.37
2018-04-25T07:46:44.955Z,1001.39
2018-04-25T07:47:44.939Z,1001.46
2018-04-25T07:48:44.920Z,1001.42
2018-04-25T07:49:44.896Z,1001.50
2018-04-25T07:50:44.883Z,1001.49
2018-04-25T07:51:44.862Z,1001.64
2018-04-25T07:52:44.846Z,1001.54
2018-04-25T07:53:44.824Z,1001.49
2018-04-25T07:54:44.837Z,1001.58
2018-04-25T07:55:44.785Z,1001.66
2018-04-25T07:56:44.767Z,1001.66
2018-04-25T07:57:44.831Z,1001.69
2018-04-25T07:58:44.732Z,1001.67
2018-04-25T07:59:44.712Z,1001.62
2018-04-25T08:00:44.696Z,1001.69
2018-04-25T08:01:44.680Z,1001.69
2018-04-25T08:02:44.659Z,1001.65
2018-04-25T08:03:44.636Z,1001.68
2018-04-25T08:04:44.620Z,1001.75
2018-04-25T08:05:44.603Z,1001.74
2018-04-25T08:06:44.584Z,1001.76
2018-04-25T08:07:44.564Z,1001.80
2018-04-25T08:08:44.544Z,1001.78
2018-04-25T08:09:44.596Z,1001.81
2018-04-25T08:10:44.511Z,1001.83
2018-04-25T08:11:44.492Z,1001.81
2018-04-25T08:12:44.471Z,1001.90
2018-04-25T08:13:44.452Z,1001.88
2018-04-25T08:14:44.443Z,1001.88
2018-04-25T08:15:44.414Z,1001.92
2018-04-25T08:16:44.409Z,1001.86
2018-04-25T08:17:44.377Z,1001.87
2018-04-25T08:18:44.363Z,1001.97
2018-04-25T08:19:44.341Z,1002.01
2018-04-25T08:20:44.331Z,1001.93
2018-04-25T08:21:44.325Z,1001.97
2018-04-25T08:22:44.290Z,1002.03
2018-04-25T08:23:44.367Z,1002.02
2018-04-25T08:24:44.279Z,1002.07
2018-04-25T08:25:44.238Z,1002.17
2018-04-25T08:26:44.222Z,1002.15
2018-04-25T08:27:44.201Z,1002.14
2018-04-25T08:28:44.178Z,1002.14
2018-04-25T08:29:44.162Z,1002.13
2018-04-25T08:30:44.144Z,1002.10
2018-04-25T08:31:44.129Z,1002.17
2018-04-25T08:32:44.108Z,1002.21
2018-04-25T08:33:44.142Z,1002.17
2018-04-25T08:34:44.096Z,1002.16
2018-04-25T08:35:44.073Z,1002.18
2018-04-25T08:36:44.035Z,1002.20
2018-04-25T08:37:44.018Z,1002.29
2018-04-25T08:38:44.014Z,1002.31
2018-04-25T08:39:43.984Z,1002.28
2018-04-25T08:40:43.974Z,1002.41
2018-04-25T08:41:43.965Z,1002.31
2018-04-25T08:42:43.962Z,1002.38
2018-04-25T08:43:43.919Z,1002.41
2018-04-25T08:44:43.914Z,1002.47
2018-04-25T08:45:43.875Z,1002.41
2018-04-25T08:46:43.858Z,1002.38
2018-04-25T08:47:43.837Z,1002.50
2018-04-25T08:48:43.820Z,1002.44
2018-04-25T08:49:43.801Z,1002.60
2018-04-25T08:50:43.783Z,1002.55
2018-04-25T08:51:43.765Z,1002.56
2018-04-25T08:52:43.801Z,1002.61
2018-04-25T08:53:43.739Z,1002.68
2018-04-25T08:54:43.711Z,1002.54
2018-04-25T08:55:43.697Z,1002.63
2018-04-25T08:56:43.676Z,1002.62
2018-04-25T08:57:43.657Z,1002.70
2018-04-25T08:58:43.640Z,1002.80
2018-04-25T08:59:43.623Z,1002.70
2018-04-25T09:00:43.603Z,1002.75
2018-04-25T09:01:43.603Z,1002.77
2018-04-25T09:02:43.569Z,1002.72
2018-04-25T09:03:43.552Z,1002.79
2018-04-25T09:04:43.534Z,1002.72
2018-04-25T09:05:43.535Z,1002.83
2018-04-25T09:06:43.497Z,1002.80
2018-04-25T09:07:43.477Z,1002.77
2018-04-25T09:08:43.463Z,1002.88
2018-04-25T09:09:43.441Z,1002.88
2018-04-25T09:10:43.424Z,1002.85
2018-04-25T09:11:43.405Z,1002.83
2018-04-25T09:12:43.413Z,1002.86
2018-04-25T09:13:43.373Z,1002.93
2018-04-25T09:14:43.353Z,1002.92
2018-04-25T09:15:43.339Z,1003.03
2018-04-25T09:16:43.323Z,1003.07
2018-04-25T09:17:43.301Z,1002.96
2018-04-25T09:18:43.281Z,1003.03
2018-04-25T09:19:43.269Z,1003.10
2018-04-25T09:20:43.247Z,1003.04
2018-04-25T09:21:43.228Z,1003.14
2018-04-25T09:22:43.211Z,1003.13
2018-04-25T09:23:43.195Z,1003.08
2018-04-25T09:24:43.242Z,1003.08
2018-04-25T09:25:43.163Z,1003.15
2018-04-25T09:26:43.141Z,1003.01
2018-04-25T09:27:43.155Z,1003.17
2018-04-25T09:28:43.117Z,1003.13
2018-04-25T09:29:43.092Z,1003.06
2018-04-25T09:30:43.073Z,1003.14
2018-04-25T09:31:43.068Z,1003.08
2018-04-25T09:32:43.046Z,1003.09
2018-04-25T09:33:43.021Z,1003.06
2018-04-25T09:34:43.003Z,1003.08
2018-04-25T09:35:42.987Z,1003.12
2018-04-25T09:36:42.987Z,1003.15
2018-04-25T09:37:42.950Z,1003.14
2018-04-25T09:38:42.935Z,1003.14
2018-04-25T09:39:42.914Z,1003.28
2018-04-25T09:40:42.912Z,1003.34
2018-04-25T09:41:42.904Z,1003.41
2018-04-25T09:42:42.866Z,1003.47
2018-04-25T09:43:42.847Z,1003.45
2018-04-25T09:44:42.834Z,1003.42
2018-04-25T09:45:42.818Z,1003.37
2018-04-25T09:46:42.801Z,1003.42
2018-04-25T09:47:42.778Z,1003.36
2018-04-25T09:48:42.766Z,1003.34
2018-04-25T09:49:42.760Z,1003.44
2018-04-25T09:50:42.726Z,1003.50
2018-04-25T09:51:42.778Z,1003.47
2018-04-25T09:52:42.692Z,1003.52
2018-04-25T09:53:42.679Z,1003.46
2018-04-25T09:54:42.654Z,1003.62
2018-04-25T09:55:42.638Z,1003.48
2018-04-25T09:56:42.620Z,1003.59
2018-04-25T09:57:42.690Z,1003.67
2018-04-25T09:58:42.587Z,1003.64
2018-04-25T09:59:42.567Z,1003.51
2018-04-25T10:00:42.552Z,1003.51
2018-04-25T10:01:42.552Z,1003.61
2018-04-25T10:02:42.522Z,1003.61
2018-04-25T10:03:42.503Z,1003.64
2018-04-25T10:04:42.480Z,1003.63
2018-04-25T10:05:42.468Z,1003.71
2018-04-25T10:06:42.442Z,1003.70
2018-04-25T10:07:42.427Z,1003.79
2018-04-25T10:08:42.408Z,1003.83
2018-04-25T10:09:42.394Z,1003.87
2018-04-25T10:10:42.425Z,1003.87
2018-04-25T10:11:42.352Z,1003.89
2018-04-25T10:12:42.335Z,1003.87
2018-04-25T10:13:42.323Z,1003.90
2018-04-25T10:14:42.304Z,1003.95
2018-04-25T10:15:42.284Z,1003.96
2018-04-25T10:16:42.262Z,1003.94
2018-04-25T10:17:42.245Z,1004.01
2018-04-25T10:18:42.226Z,1003.99
2018-04-25T10:19:42.209Z,1004.05
2018-04-25T10:20:42.189Z,1004.03
2018-04-25T10:21:42.177Z,1004.05
2018-04-25T10:22:42.176Z,1004.12
2018-04-25T10:23:42.135Z,1004.17
2018-04-25T10:24:42.117Z,1004.24
2018-04-25T10:25:42.124Z,1004.17
2018-04-25T10:26:42.082Z,1004.12
2018-04-25T10:27:42.066Z,1004.19
2018-04-25T10:28:42.044Z,1004.13
2018-04-25T10:29:42.026Z,1004.11
2018-04-25T10:30:42.011Z,1004.10
2018-04-25T10:31:42.017Z,1004.20
2018-04-25T10:32:41.972Z,1004.14
2018-04-25T10:33:41.953Z,1004.20
2018-04-25T10:34:41.936Z,1004.22
2018-04-25T10:35:41.923Z,1004.22
2018-04-25T10:36:41.897Z,1004.20
2018-04-25T10:37:41.881Z,1004.19
2018-04-25T10:38:41.902Z,1004.19
2018-04-25T10:39:41.846Z,1004.15
2018-04-25T10:40:41.826Z,1004.12
2018-04-25T10:41:41.809Z,1004.12
2018-04-25T10:42:41.794Z,1004.12
2018-04-25T10:43:41.770Z,1004.16
2018-04-25T10:44:41.754Z,1004.21
2018-04-25T10:45:41.733Z,1004.29
2018-04-25T10:46:41.720Z,1004.14
2018-04-25T10:47:41.699Z,1004.13
2018-04-25T10:48:41.684Z,1004.03
2018-04-25T10:49:41.662Z,1004.07
2018-04-25T10:50:41.646Z,1004.09
2018-04-25T10:51:41.626Z,1004.15
2018-04-25T10:52:41.606Z,1004.15
2018-04-25T10:53:41.590Z,1004.13
2018-04-25T10:54:41.572Z,1004.13
2018-04-25T10:55:41.554Z,1004.16
2018-04-25T10:56:41.536Z,1004.18
2018-04-25T10:57:41.517Z,1004.15
2018-04-25T10:58:41.499Z,1004.27
2018-04-25T10:59:41.481Z,1004.19
2018-04-25T11:00:41.465Z,1004.20
2018-04-25T11:01:41.468Z,1004.27
2018-04-25T11:02:41.435Z,1004.32
2018-04-25T11:03:41.409Z,1004.29
2018-04-25T11:04:41.395Z,1004.20
2018-04-25T11:05:41.378Z,1004.23
2018-04-25T11:06:41.358Z,1004.12
2018-04-25T11:07:41.347Z,1004.11
2018-04-25T11:08:41.324Z,1004.21
2018-04-25T11:09:41.316Z,1004.17
2018-04-25T11:10:41.298Z,1004.19
2018-04-25T11:11:41.272Z,1004.20
2018-04-25T11:12:41.253Z,1004.13
2018-04-25T11:13:41.241Z,1004.17
2018-04-25T11:14:41.218Z,1004.13
2018-04-25T11:15:41.209Z,1004.08
2018-04-25T11:16:41.187Z,1004.08
2018-04-25T11:17:41.164Z,1004.08
2018-04-25T11:18:41.147Z,1004.06
2018-04-25T11:19:41.130Z,1004.06
2018-04-25T11:20:41.112Z,1004.06
2018-04-25T11:21:41.095Z,1004.15
2018-04-25T11:22:41.074Z,1004.19
2018-04-25T11:23:41.056Z,1004.24
2018-04-25T11:24:41.040Z,1004.31
2018-04-25T11:25:41.026Z,1004.28
2018-04-25T11:26:41.092Z,1004.33
2018-04-25T11:27:40.989Z,1004.31
2018-04-25T11:28:40.967Z,1004.38
2018-04-25T11:29:40.952Z,1004.38
2018-04-25T11:30:40.932Z,1004.32
2018-04-25T11:31:40.932Z,1004.41
2018-04-25T11:32:40.896Z,1004.46
2018-04-25T11:33:40.881Z,1004.51
2018-04-25T11:34:40.860Z,1004.54
2018-04-25T11:35:40.867Z,1004.60
2018-04-25T11:36:40.829Z,1004.62
2018-04-25T11:37:40.812Z,1004.62
2018-04-25T11:38:40.795Z,1004.64
2018-04-25T11:39:40.780Z,1004.62
2018-04-25T11:40:40.758Z,1004.62
2018-04-25T11:41:40.747Z,1004.62
2018-04-25T11:42:40.715Z,1004.62
2018-04-25T11:43:40.702Z,1004.63
2018-04-25T11:44:40.683Z,1004.64
2018-04-25T11:45:40.669Z,1004.61
2018-04-25T11:46:40.646Z,1004.58
2018-04-25T11:47:40.635Z,1004.65
2018-04-25T11:48:40.609Z,1004.62
2018-04-25T11:49:40.590Z,1004.68
2018-04-25T11:50:40.580Z,1004.68
2018-04-25T11:51:40.608Z,1004.67
2018-04-25T11:52:40.566Z,1004.63
2018-04-25T11:53:40.521Z,1004.63
2018-04-25T11:54:40.555Z,1004.66
2018-04-25T11:55:40.485Z,1004.63
2018-04-25T11:56:40.465Z,1004.65
2018-04-25T11:57:40.449Z,1004.64
2018-04-25T11:58:40.472Z,1004.65
2018-04-25T11:59:40.450Z,1004.69
2018-04-25T12:00:40.402Z,1004.63
2018-04-25T12:01:40.392Z,1004.67
2018-04-25T12:02:40.377Z,1004.69
2018-04-25T12:03:40.338Z,1004.69
2018-04-25T12:04:40.350Z,1004.68
2018-04-25T12:05:40.305Z,1004.65
2018-04-25T12:06:40.311Z,1004.66
2018-04-25T12:07:40.266Z,1004.69
2018-04-25T12:08:40.265Z,1004.76
2018-04-25T12:09:40.245Z,1004.71
2018-04-25T12:10:40.279Z,1004.76